createdAt,value
2016-08-29T00:00:32.350Z,27.74
2016-08-29T00:01:32.453Z,27.66
2016-08-29T00:02:32.417Z,27.72
2016-08-29T00:03:32.374Z,27.66
2016-08-29T00:04:30.971Z,27.74
2016-08-29T00:05:30.984Z,27.66
2016-08-29T00:06:32.402Z,27.72
2016-08-29T00:07:31.701Z,27.69
2016-08-29T00:08:31.003Z,27.7
2016-08-29T00:09:32.426Z,27.74
2016-08-29T00:10:31.023Z,27.74
2016-08-29T00:11:31.735Z,27.72
2016-08-29T00:12:32.695Z,27.7
2016-08-29T00:13:31.749Z,27.65
2016-08-29T00:14:31.758Z,27.72
2016-08-29T00:15:31.765Z,27.62
2016-08-29T00:16:31.065Z,27.67
2016-08-29T00:17:31.076Z,27.65
2016-08-29T00:18:32.497Z,27.43
2016-08-29T00:19:31.088Z,27.47
2016-08-29T00:20:31.270Z,27.57
2016-08-29T00:21:31.812Z,27.63
2016-08-29T00:22:31.824Z,27.6
2016-08-29T00:23:32.234Z,27.54
2016-08-29T00:24:31.834Z,27.5
2016-08-29T00:25:33.537Z,27.55
2016-08-29T00:26:32.559Z,27.51
2016-08-29T00:27:31.871Z,27.57
2016-08-29T00:28:32.573Z,27.57
2016-08-29T00:29:31.876Z,27.65
2016-08-29T00:30:31.886Z,27.51
2016-08-29T00:31:31.894Z,27.63
2016-08-29T00:32:31.899Z,27.65
2016-08-29T00:33:31.201Z,27.51
2016-08-29T00:34:32.637Z,27.51
2016-08-29T00:35:31.216Z,27.54
2016-08-29T00:36:31.933Z,27.54
2016-08-29T00:37:31.947Z,27.55
2016-08-29T00:38:32.649Z,27.51
2016-08-29T00:39:31.957Z,27.51
2016-08-29T00:40:32.676Z,27.57
2016-08-29T00:41:31.975Z,27.57
2016-08-29T00:42:31.330Z,27.51
2016-08-29T00:43:31.986Z,27.6
2016-08-29T00:44:32.701Z,27.51
2016-08-29T00:45:32.771Z,27.57
2016-08-29T00:46:32.063Z,27.51
2016-08-29T00:47:31.318Z,27.49
2016-08-29T00:48:31.380Z,27.55
2016-08-29T00:49:32.751Z,27.55
2016-08-29T00:50:32.041Z,27.5
2016-08-29T00:51:32.056Z,27.54
2016-08-29T00:52:32.768Z,27.59
2016-08-29T00:53:32.067Z,27.55
2016-08-29T00:54:31.369Z,27.51
2016-08-29T00:55:32.794Z,27.51
2016-08-29T00:56:32.442Z,27.51
2016-08-29T00:57:32.098Z,27.6
2016-08-29T00:58:31.506Z,27.5
2016-08-29T00:59:32.112Z,27.59
2016-08-29T01:00:32.167Z,27.55
2016-08-29T01:01:32.133Z,27.54
2016-08-29T01:02:32.141Z,27.55
2016-08-29T01:03:32.148Z,27.55
2016-08-29T01:04:32.156Z,27.55
2016-08-29T01:05:32.871Z,27.55
2016-08-29T01:06:32.931Z,27.51
2016-08-29T01:07:32.180Z,27.55
2016-08-29T01:08:32.190Z,27.55
2016-08-29T01:09:33.343Z,27.51
2016-08-29T01:10:32.912Z,27.6
2016-08-29T01:11:32.917Z,27.62
2016-08-29T01:12:32.925Z,27.6
2016-08-29T01:13:32.229Z,27.6
2016-08-29T01:14:32.942Z,27.55
2016-08-29T01:15:32.242Z,27.57
2016-08-29T01:16:32.253Z,27.5
2016-08-29T01:17:32.263Z,27.51
2016-08-29T01:18:31.564Z,27.5
2016-08-29T01:19:32.288Z,27.57
2016-08-29T01:20:32.739Z,27.46
2016-08-29T01:21:32.997Z,27.47
2016-08-29T01:22:32.353Z,27.44
2016-08-29T01:23:33.015Z,27.41
2016-08-29T01:24:33.022Z,27.43
2016-08-29T01:25:33.034Z,27.46
2016-08-29T01:26:32.331Z,27.51
2016-08-29T01:27:33.048Z,27.4
2016-08-29T01:28:32.350Z,27.5
2016-08-29T01:29:32.357Z,27.44
2016-08-29T01:30:32.365Z,27.55
2016-08-29T01:31:33.068Z,27.51
2016-08-29T01:32:32.380Z,27.43
2016-08-29T01:33:33.096Z,27.46
2016-08-29T01:34:33.103Z,27.49
2016-08-29T01:35:33.111Z,27.47
2016-08-29T01:36:31.705Z,27.46
2016-08-29T01:37:32.416Z,27.41
2016-08-29T01:38:32.427Z,27.41
2016-08-29T01:39:33.159Z,27.43
2016-08-29T01:40:32.440Z,27.37
2016-08-29T01:41:33.162Z,27.41
2016-08-29T01:42:32.851Z,27.41
2016-08-29T01:43:31.860Z,27.46
2016-08-29T01:44:32.480Z,27.41
2016-08-29T01:45:32.533Z,27.41
2016-08-29T01:46:33.340Z,27.32
2016-08-29T01:47:32.548Z,27.31
2016-08-29T01:48:32.506Z,27.1
2016-08-29T01:49:33.226Z,27.14
2016-08-29T01:50:33.227Z,27.24
2016-08-29T01:51:32.576Z,27.32
2016-08-29T01:52:31.829Z,27.4
2016-08-29T01:53:32.189Z,27.4
2016-08-29T01:54:32.551Z,27.41
2016-08-29T01:55:31.856Z,27.39
2016-08-29T01:56:32.568Z,27.4
2016-08-29T01:57:32.626Z,27.43
2016-08-29T01:58:33.291Z,27.39
2016-08-29T01:59:32.595Z,27.39
2016-08-29T02:00:33.305Z,27.43
2016-08-29T02:01:33.319Z,27.4
2016-08-29T02:02:31.908Z,27.39
2016-08-29T02:03:33.379Z,27.43
2016-08-29T02:04:31.923Z,27.41
2016-08-29T02:05:33.341Z,27.39
2016-08-29T02:06:31.989Z,27.37
2016-08-29T02:07:33.360Z,27.44
2016-08-29T02:08:32.804Z,27.43
2016-08-29T02:09:32.671Z,27.39
2016-08-29T02:10:32.678Z,27.39
2016-08-29T02:11:32.682Z,27.36
2016-08-29T02:12:33.410Z,27.39
2016-08-29T02:13:31.994Z,27.46
2016-08-29T02:14:32.709Z,27.41
2016-08-29T02:15:33.424Z,27.41
2016-08-29T02:16:33.432Z,27.41
2016-08-29T02:17:34.589Z,27.39
2016-08-29T02:18:33.456Z,27.39
2016-08-29T02:19:33.148Z,27.39
2016-08-29T02:20:32.047Z,27.4
2016-08-29T02:21:32.765Z,27.46
2016-08-29T02:22:32.072Z,27.4
2016-08-29T02:23:33.485Z,27.43
2016-08-29T02:24:32.790Z,27.34
2016-08-29T02:25:32.090Z,27.43
2016-08-29T02:26:32.805Z,27.36
2016-08-29T02:27:32.818Z,27.31
2016-08-29T02:28:33.417Z,27.31
2016-08-29T02:29:33.531Z,27.36
2016-08-29T02:30:34.518Z,27.28
2016-08-29T02:31:32.843Z,27.4
2016-08-29T02:32:32.140Z,27.34
2016-08-29T02:33:32.860Z,27.31
2016-08-29T02:34:32.867Z,27.36
2016-08-29T02:35:33.023Z,27.32
2016-08-29T02:36:33.590Z,27.34
2016-08-29T02:37:32.892Z,27.34
2016-08-29T02:38:33.604Z,27.34
2016-08-29T02:39:32.900Z,27.31
2016-08-29T02:40:33.619Z,27.25
2016-08-29T02:41:32.266Z,27.32
2016-08-29T02:42:32.935Z,27.4
2016-08-29T02:43:32.230Z,27.32
2016-08-29T02:44:32.951Z,27.32
2016-08-29T02:45:32.951Z,27.34
2016-08-29T02:46:32.253Z,27.24
2016-08-29T02:47:32.968Z,27.31
2016-08-29T02:48:32.979Z,27.28
2016-08-29T02:49:32.987Z,27.19
2016-08-29T02:50:32.994Z,27.28
2016-08-29T02:51:33.004Z,27.29
2016-08-29T02:52:33.008Z,27.32
2016-08-29T02:53:33.014Z,27.27
2016-08-29T02:54:33.870Z,27.28
2016-08-29T02:55:33.739Z,27.29
2016-08-29T02:56:33.045Z,27.22
2016-08-29T02:57:33.044Z,27.25
2016-08-29T02:58:32.348Z,27.29
2016-08-29T02:59:33.113Z,27.25
2016-08-29T03:00:33.071Z,27.22
2016-08-29T03:01:33.783Z,27.22
2016-08-29T03:02:32.376Z,27.27
2016-08-29T03:03:34.791Z,27.36
2016-08-29T03:04:33.101Z,27.32
2016-08-29T03:05:33.917Z,27.27
2016-08-29T03:06:32.407Z,27.25
2016-08-29T03:07:32.416Z,27.28
2016-08-29T03:08:32.430Z,27.36
2016-08-29T03:09:33.137Z,27.25
2016-08-29T03:10:33.151Z,27.22
2016-08-29T03:11:33.161Z,27.37
2016-08-29T03:12:33.165Z,27.29
2016-08-29T03:13:33.171Z,27.22
2016-08-29T03:14:33.247Z,27.29
2016-08-29T03:15:33.898Z,27.31
2016-08-29T03:16:34.044Z,27.28
2016-08-29T03:17:32.497Z,27.39
2016-08-29T03:18:33.919Z,27.28
2016-08-29T03:19:33.224Z,27.32
2016-08-29T03:20:33.235Z,27.24
2016-08-29T03:21:33.942Z,27.24
2016-08-29T03:22:32.540Z,27.27
2016-08-29T03:23:33.308Z,27.28
2016-08-29T03:24:33.988Z,27.22
2016-08-29T03:25:33.274Z,27.12
2016-08-29T03:26:33.277Z,27.13
2016-08-29T03:27:34.385Z,27.18
2016-08-29T03:28:32.582Z,27.17
2016-08-29T03:29:32.891Z,27.17
2016-08-29T03:30:33.307Z,27.18
2016-08-29T03:31:34.025Z,27.12
2016-08-29T03:32:33.323Z,27.17
2016-08-29T03:33:34.038Z,27.14
2016-08-29T03:34:33.389Z,27.17
2016-08-29T03:35:32.639Z,27.27
2016-08-29T03:36:32.647Z,27.27
2016-08-29T03:37:32.659Z,27.25
2016-08-29T03:38:34.937Z,27.25
2016-08-29T03:39:33.379Z,27.21
2016-08-29T03:40:34.097Z,27.21
2016-08-29T03:41:32.685Z,27.19
2016-08-29T03:42:33.398Z,27.13
2016-08-29T03:43:33.416Z,27.24
2016-08-29T03:44:33.426Z,27.17
2016-08-29T03:45:34.178Z,27.1
2016-08-29T03:46:33.482Z,27.12
2016-08-29T03:47:34.149Z,27.1
2016-08-29T03:48:34.160Z,27.12
2016-08-29T03:49:33.604Z,27.12
2016-08-29T03:50:34.174Z,27.24
2016-08-29T03:51:33.470Z,27.13
2016-08-29T03:52:34.191Z,27.13
2016-08-29T03:53:34.202Z,27.14
2016-08-29T03:54:32.791Z,27.28
2016-08-29T03:55:34.207Z,27.14
2016-08-29T03:56:33.508Z,27.18
2016-08-29T03:57:33.523Z,27.06
2016-08-29T03:58:33.523Z,27.09
2016-08-29T03:59:32.828Z,27.22
2016-08-29T04:00:34.040Z,27.22
2016-08-29T04:01:32.842Z,27.21
2016-08-29T04:02:33.552Z,27.12
2016-08-29T04:03:33.564Z,27.13
2016-08-29T04:04:33.579Z,27.17
2016-08-29T04:05:33.626Z,27.19
2016-08-29T04:06:34.338Z,27.1
2016-08-29T04:07:33.593Z,27.19
2016-08-29T04:08:33.599Z,27.24
2016-08-29T04:09:33.608Z,27.29
2016-08-29T04:10:34.330Z,27.28
2016-08-29T04:11:34.384Z,27.27
2016-08-29T04:12:34.340Z,27.28
2016-08-29T04:13:33.648Z,27.28
2016-08-29T04:14:33.652Z,27.21
2016-08-29T04:15:34.361Z,27.17
2016-08-29T04:16:33.661Z,27.17
2016-08-29T04:17:34.380Z,27.12
2016-08-29T04:18:33.679Z,27.14
2016-08-29T04:19:33.688Z,27.28
2016-08-29T04:20:34.403Z,27.18
2016-08-29T04:21:34.411Z,27.14
2016-08-29T04:22:33.812Z,27.13
2016-08-29T04:23:33.718Z,27.13
2016-08-29T04:24:33.021Z,27.14
2016-08-29T04:25:34.444Z,27.24
2016-08-29T04:26:34.500Z,27.18
2016-08-29T04:27:33.813Z,27.17
2016-08-29T04:28:33.761Z,27.1
2016-08-29T04:29:33.770Z,27.17
2016-08-29T04:30:33.068Z,27.17
2016-08-29T04:31:33.785Z,27.17
2016-08-29T04:32:34.498Z,27.19
2016-08-29T04:33:33.797Z,27.17
2016-08-29T04:34:33.811Z,27.22
2016-08-29T04:35:35.526Z,27.19
2016-08-29T04:36:33.117Z,27.13
2016-08-29T04:37:33.936Z,27.1
2016-08-29T04:38:33.839Z,27.1
2016-08-29T04:39:34.554Z,27.12
2016-08-29T04:40:34.562Z,27.12
2016-08-29T04:41:33.863Z,27.17
2016-08-29T04:42:34.577Z,27.17
2016-08-29T04:43:34.584Z,27.18
2016-08-29T04:44:34.594Z,27.09
2016-08-29T04:45:33.895Z,27.14
2016-08-29T04:46:35.005Z,27.14
2016-08-29T04:47:34.665Z,27.12
2016-08-29T04:48:33.919Z,27.13
2016-08-29T04:49:33.937Z,27.14
2016-08-29T04:50:33.930Z,27.24
2016-08-29T04:51:33.941Z,27.21
2016-08-29T04:52:33.950Z,27.17
2016-08-29T04:53:33.258Z,27.27
2016-08-29T04:54:33.264Z,27.13
2016-08-29T04:55:33.974Z,27.25
2016-08-29T04:56:34.687Z,27.28
2016-08-29T04:57:33.682Z,27.22
2016-08-29T04:58:33.997Z,27.17
2016-08-29T04:59:34.153Z,27.17
2016-08-29T05:00:34.716Z,27.14
2016-08-29T05:01:35.525Z,27.25
2016-08-29T05:02:34.029Z,27.12
2016-08-29T05:03:34.742Z,27.12
2016-08-29T05:04:34.038Z,27.1
2016-08-29T05:05:34.051Z,27.1
2016-08-29T05:06:34.060Z,27.22
2016-08-29T05:07:34.782Z,27.24
2016-08-29T05:08:35.229Z,27.17
2016-08-29T05:09:34.787Z,27.21
2016-08-29T05:10:34.802Z,27.19
2016-08-29T05:11:34.805Z,27.21
2016-08-29T05:12:33.451Z,27.17
2016-08-29T05:13:33.406Z,27.13
2016-08-29T05:14:34.122Z,27.25
2016-08-29T05:15:34.837Z,27.14
2016-08-29T05:16:34.142Z,27.25
2016-08-29T05:17:34.151Z,27.22
2016-08-29T05:18:33.441Z,27.25
2016-08-29T05:19:33.459Z,27.19
2016-08-29T05:20:34.880Z,27.28
2016-08-29T05:21:34.177Z,27.18
2016-08-29T05:22:33.484Z,27.12
2016-08-29T05:23:35.957Z,27.12
2016-08-29T05:24:34.199Z,27.19
2016-08-29T05:25:34.912Z,27.25
2016-08-29T05:26:34.217Z,27.21
2016-08-29T05:27:34.937Z,27.25
2016-08-29T05:28:33.522Z,27.12
2016-08-29T05:29:34.240Z,27.24
2016-08-29T05:30:33.544Z,27.24
2016-08-29T05:31:34.984Z,27.12
2016-08-29T05:32:34.261Z,27.12
2016-08-29T05:33:34.985Z,27.24
2016-08-29T05:34:34.827Z,27.17
2016-08-29T05:35:34.992Z,27.21
2016-08-29T05:36:34.297Z,27.17
2016-08-29T05:37:34.302Z,27.17
2016-08-29T05:38:34.311Z,27.18
2016-08-29T05:39:35.029Z,27.21
2016-08-29T05:40:34.326Z,27.19
2016-08-29T05:41:34.334Z,27.24
2016-08-29T05:42:35.053Z,27.27
2016-08-29T05:43:33.643Z,27.25
2016-08-29T05:44:34.361Z,27.14
2016-08-29T05:45:35.621Z,27.22
2016-08-29T05:46:35.083Z,27.13
2016-08-29T05:47:33.673Z,27.17
2016-08-29T05:48:33.746Z,27.22
2016-08-29T05:49:35.103Z,27.13
2016-08-29T05:50:34.434Z,27.13
2016-08-29T05:51:35.119Z,27.13
2016-08-29T05:52:34.425Z,27.13
2016-08-29T05:53:35.191Z,27.1
2016-08-29T05:54:36.131Z,27.22
2016-08-29T05:55:34.451Z,27.27
2016-08-29T05:56:35.402Z,27.14
2016-08-29T05:57:34.461Z,27.22
2016-08-29T05:58:34.469Z,27.18
2016-08-29T05:59:35.181Z,27.14
2016-08-29T06:00:34.485Z,27.06
2016-08-29T06:01:34.491Z,27.09
2016-08-29T06:02:34.497Z,27.1
2016-08-29T06:03:35.216Z,27.09
2016-08-29T06:04:35.222Z,27.14
2016-08-29T06:05:34.525Z,27.17
2016-08-29T06:06:35.246Z,27.17
2016-08-29T06:07:34.945Z,27.1
2016-08-29T06:08:34.545Z,27.14
2016-08-29T06:09:36.250Z,27.09
2016-08-29T06:10:34.622Z,27.09
2016-08-29T06:11:33.907Z,27.13
2016-08-29T06:12:34.171Z,27.07
2016-08-29T06:13:34.587Z,27.1
2016-08-29T06:14:34.599Z,27.14
2016-08-29T06:15:35.315Z,27.13
2016-08-29T06:16:33.896Z,27.25
2016-08-29T06:17:34.618Z,27.1
2016-08-29T06:18:35.332Z,27.13
2016-08-29T06:19:35.336Z,27.1
2016-08-29T06:20:36.449Z,27.17
2016-08-29T06:21:34.650Z,27.18
2016-08-29T06:22:35.361Z,27.1
2016-08-29T06:23:35.374Z,27.18
2016-08-29T06:24:34.673Z,27.21
2016-08-29T06:25:34.679Z,27.13
2016-08-29T06:26:34.035Z,27.09
2016-08-29T06:27:35.403Z,27.13
2016-08-29T06:28:35.409Z,27.17
2016-08-29T06:29:35.258Z,27.14
2016-08-29T06:30:35.443Z,27.19
2016-08-29T06:31:34.734Z,27.13
2016-08-29T06:32:35.445Z,27.14
2016-08-29T06:33:34.753Z,27.25
2016-08-29T06:34:34.759Z,27.09
2016-08-29T06:35:35.517Z,27.13
2016-08-29T06:36:35.473Z,27.19
2016-08-29T06:37:34.793Z,27.18
2016-08-29T06:38:35.490Z,27.13
2016-08-29T06:39:35.502Z,27.13
2016-08-29T06:40:38.118Z,27.17
2016-08-29T06:41:34.810Z,27.19
2016-08-29T06:42:36.621Z,27.22
2016-08-29T06:43:34.166Z,27.09
2016-08-29T06:44:35.183Z,27.21
2016-08-29T06:45:34.129Z,27.22
2016-08-29T06:46:35.555Z,27.28
2016-08-29T06:47:34.199Z,27.25
2016-08-29T06:48:34.962Z,27.14
2016-08-29T06:49:34.167Z,27.19
2016-08-29T06:50:34.931Z,27.14
2016-08-29T06:51:34.985Z,27.21
2016-08-29T06:52:34.890Z,27.22
2016-08-29T06:53:36.474Z,27.14
2016-08-29T06:54:34.909Z,27.21
2016-08-29T06:55:34.914Z,27.12
2016-08-29T06:56:34.225Z,27.14
2016-08-29T06:57:35.644Z,27.19
2016-08-29T06:58:34.940Z,27.13
2016-08-29T06:59:34.950Z,27.17
2016-08-29T07:00:34.961Z,27.25
2016-08-29T07:01:34.261Z,27.17
2016-08-29T07:02:34.972Z,27.13
2016-08-29T07:03:35.033Z,27.18
2016-08-29T07:04:35.943Z,27.17
2016-08-29T07:05:34.293Z,27.17
2016-08-29T07:06:35.208Z,27.24
2016-08-29T07:07:35.720Z,27.17
2016-08-29T07:08:35.728Z,27.1
2016-08-29T07:09:35.030Z,27.18
2016-08-29T07:10:34.335Z,27.19
2016-08-29T07:11:35.044Z,27.19
2016-08-29T07:12:35.767Z,27.17
2016-08-29T07:13:34.356Z,27.24
2016-08-29T07:14:35.115Z,27.22
2016-08-29T07:15:35.875Z,27.24
2016-08-29T07:16:35.795Z,27.25
2016-08-29T07:17:35.777Z,27.24
2016-08-29T07:18:34.403Z,27.17
2016-08-29T07:19:35.109Z,27.14
2016-08-29T07:20:35.820Z,27.21
2016-08-29T07:21:35.895Z,27.28
2016-08-29T07:22:35.842Z,27.12
2016-08-29T07:23:35.140Z,27.22
2016-08-29T07:24:36.749Z,27.28
2016-08-29T07:25:35.154Z,27.12
2016-08-29T07:26:36.922Z,27.12
2016-08-29T07:27:35.908Z,27.24
2016-08-29T07:28:35.179Z,27.13
2016-08-29T07:29:35.285Z,27.19
2016-08-29T07:30:35.904Z,27.17
2016-08-29T07:31:35.259Z,27.14
2016-08-29T07:32:35.213Z,27.19
2016-08-29T07:33:36.202Z,27.12
2016-08-29T07:34:35.229Z,27.14
2016-08-29T07:35:36.369Z,27.24
2016-08-29T07:36:34.571Z,27.25
2016-08-29T07:37:35.959Z,27.27
2016-08-29T07:38:36.000Z,27.28
2016-08-29T07:39:35.271Z,27.29
2016-08-29T07:40:36.001Z,27.19
2016-08-29T07:41:35.419Z,27.19
2016-08-29T07:42:34.682Z,27.17
2016-08-29T07:43:35.349Z,27.12
2016-08-29T07:44:36.558Z,27.17
2016-08-29T07:45:35.364Z,27.22
2016-08-29T07:46:35.323Z,27.06
2016-08-29T07:47:36.035Z,27.13
2016-08-29T07:48:35.337Z,27.12
2016-08-29T07:49:36.122Z,27.14
2016-08-29T07:50:34.693Z,27.1
2016-08-29T07:51:34.715Z,27.18
2016-08-29T07:52:35.408Z,27.14
2016-08-29T07:53:35.831Z,27.14
2016-08-29T07:54:36.207Z,27.13
2016-08-29T07:55:36.245Z,27.1
2016-08-29T07:56:35.413Z,27.14
2016-08-29T07:57:34.703Z,27.13
2016-08-29T07:58:34.708Z,27.17
2016-08-29T07:59:35.421Z,27.13
2016-08-29T08:00:36.164Z,27.13
2016-08-29T08:01:34.825Z,27.17
2016-08-29T08:02:35.445Z,27.13
2016-08-29T08:03:34.754Z,27.1
2016-08-29T08:04:34.755Z,27.12
2016-08-29T08:05:34.850Z,27.09
2016-08-29T08:06:34.776Z,27.17
2016-08-29T08:07:35.962Z,27.09
2016-08-29T08:08:35.544Z,27.07
2016-08-29T08:09:35.650Z,27.13
2016-08-29T08:10:35.561Z,27.12
2016-08-29T08:11:35.515Z,27.17
2016-08-29T08:12:35.534Z,27.17
2016-08-29T08:13:35.534Z,27.09
2016-08-29T08:14:37.310Z,27.13
2016-08-29T08:15:35.601Z,27.14
2016-08-29T08:16:36.788Z,27.17
2016-08-29T08:17:34.866Z,27.09
2016-08-29T08:18:35.587Z,27.17
2016-08-29T08:19:35.669Z,27.28
2016-08-29T08:20:35.588Z,27.28
2016-08-29T08:21:35.766Z,27.22
2016-08-29T08:22:36.308Z,27.17
2016-08-29T08:23:35.834Z,27.17
2016-08-29T08:24:35.673Z,27.18
2016-08-29T08:25:35.076Z,27.12
2016-08-29T08:26:34.942Z,27.06
2016-08-29T08:27:35.644Z,27.18
2016-08-29T08:28:36.546Z,27.14
2016-08-29T08:29:35.665Z,27.12
2016-08-29T08:30:36.743Z,27.21
2016-08-29T08:31:36.435Z,27.17
2016-08-29T08:32:35.710Z,27.25
2016-08-29T08:33:35.704Z,27.25
2016-08-29T08:34:35.700Z,27.17
2016-08-29T08:35:36.434Z,27.12
2016-08-29T08:36:35.808Z,27.17
2016-08-29T08:37:37.368Z,27.24
2016-08-29T08:38:35.025Z,27.29
2016-08-29T08:39:37.039Z,27.12
2016-08-29T08:40:35.302Z,27.22
2016-08-29T08:41:35.798Z,27.09
2016-08-29T08:42:35.863Z,27.1
2016-08-29T08:43:35.784Z,27.21
2016-08-29T08:44:36.736Z,27.24
2016-08-29T08:45:35.922Z,27.21
2016-08-29T08:46:36.615Z,26.88
2016-08-29T08:47:35.906Z,26.63
2016-08-29T08:48:36.524Z,26.82
2016-08-29T08:49:35.873Z,26.99
2016-08-29T08:50:35.855Z,27.07
2016-08-29T08:51:36.944Z,27.1
2016-08-29T08:52:35.933Z,27.07
2016-08-29T08:53:35.222Z,27.06
2016-08-29T08:54:35.890Z,27.12
2016-08-29T08:55:36.587Z,27.04
2016-08-29T08:56:35.970Z,27.07
2016-08-29T08:57:35.272Z,27.03
2016-08-29T08:58:36.673Z,26.97
2016-08-29T08:59:36.623Z,26.97
2016-08-29T09:00:35.612Z,26.85
2016-08-29T09:01:36.739Z,26.89
2016-08-29T09:02:36.016Z,27.06
2016-08-29T09:03:36.698Z,26.95
2016-08-29T09:04:35.234Z,26.84
2016-08-29T09:05:37.803Z,26.91
2016-08-29T09:06:36.739Z,26.8
2016-08-29T09:07:37.520Z,26.85
2016-08-29T09:08:36.786Z,26.88
2016-08-29T09:09:36.718Z,26.89
2016-08-29T09:10:36.143Z,26.95
2016-08-29T09:11:36.704Z,27.02
2016-08-29T09:12:36.163Z,27.03
2016-08-29T09:13:36.864Z,27.03
2016-08-29T09:14:36.019Z,26.95
2016-08-29T09:15:36.804Z,26.99
2016-08-29T09:16:35.376Z,26.95
2016-08-29T09:17:36.151Z,27
2016-08-29T09:18:35.496Z,26.99
2016-08-29T09:19:37.820Z,26.95
2016-08-29T09:20:36.134Z,26.92
2016-08-29T09:21:36.225Z,26.84
2016-08-29T09:22:36.278Z,26.85
2016-08-29T09:23:36.921Z,26.82
2016-08-29T09:24:36.156Z,26.85
2016-08-29T09:25:36.209Z,26.84
2016-08-29T09:26:36.982Z,26.8
2016-08-29T09:27:37.339Z,26.85
2016-08-29T09:28:36.332Z,26.88
2016-08-29T09:29:36.956Z,26.82
2016-08-29T09:30:36.297Z,26.89
2016-08-29T09:31:36.164Z,26.91
2016-08-29T09:32:36.251Z,26.92
2016-08-29T09:33:36.181Z,27.06
2016-08-29T09:34:36.233Z,27.03
2016-08-29T09:35:36.212Z,27.12
2016-08-29T09:36:36.397Z,27
2016-08-29T09:37:36.290Z,27.03
2016-08-29T09:38:37.228Z,27
2016-08-29T09:39:36.982Z,27.06
2016-08-29T09:40:36.445Z,26.99
2016-08-29T09:41:36.336Z,27.02
2016-08-29T09:42:37.034Z,26.97
2016-08-29T09:43:35.569Z,26.97
2016-08-29T09:44:36.323Z,26.99
2016-08-29T09:45:38.319Z,26.95
2016-08-29T09:46:35.681Z,27.04
2016-08-29T09:47:36.320Z,27.03
2016-08-29T09:48:36.396Z,27.03
2016-08-29T09:49:35.587Z,26.95
2016-08-29T09:50:36.922Z,27
2016-08-29T09:51:36.364Z,26.95
2016-08-29T09:52:37.589Z,26.89
2016-08-29T09:53:37.084Z,26.84
2016-08-29T09:54:35.743Z,26.91
2016-08-29T09:55:36.743Z,26.88
2016-08-29T09:56:36.447Z,26.85
2016-08-29T09:57:36.470Z,26.85
2016-08-29T09:58:36.529Z,26.84
2016-08-29T09:59:37.198Z,26.84
2016-08-29T10:00:36.497Z,26.89
2016-08-29T10:01:37.148Z,26.97
2016-08-29T10:02:37.786Z,26.91
2016-08-29T10:03:37.296Z,27.03
2016-08-29T10:04:36.578Z,27.02
2016-08-29T10:05:37.191Z,26.99
2016-08-29T10:06:37.273Z,26.95
2016-08-29T10:07:36.517Z,26.92
2016-08-29T10:08:35.737Z,27.06
2016-08-29T10:09:37.366Z,27.07
2016-08-29T10:10:37.313Z,27.12
2016-08-29T10:11:36.605Z,27.06
2016-08-29T10:12:37.254Z,27.09
2016-08-29T10:13:36.587Z,27.07
2016-08-29T10:14:37.893Z,26.99
2016-08-29T10:15:37.323Z,27.04
2016-08-29T10:16:38.373Z,27.07
2016-08-29T10:17:36.672Z,27.12
2016-08-29T10:18:37.297Z,27.13
2016-08-29T10:19:37.434Z,27.04
2016-08-29T10:20:36.569Z,27.02
2016-08-29T10:21:36.390Z,26.99
2016-08-29T10:22:37.384Z,26.95
2016-08-29T10:23:36.707Z,27.04
2016-08-29T10:24:36.062Z,26.92
2016-08-29T10:25:36.020Z,26.92
2016-08-29T10:26:36.863Z,26.95
2016-08-29T10:27:36.735Z,27
2016-08-29T10:28:35.896Z,27.06
2016-08-29T10:29:37.488Z,27.09
2016-08-29T10:30:36.773Z,27.1
2016-08-29T10:31:36.734Z,27.1
2016-08-29T10:32:37.442Z,27.07
2016-08-29T10:33:39.425Z,27.1
2016-08-29T10:34:37.526Z,27.13
2016-08-29T10:35:36.721Z,27.27
2016-08-29T10:36:37.486Z,27.18
2016-08-29T10:37:36.808Z,27.13
2016-08-29T10:38:38.396Z,27.28
2016-08-29T10:39:37.717Z,27.21
2016-08-29T10:40:37.655Z,27.12
2016-08-29T10:41:36.026Z,27.24
2016-08-29T10:42:36.840Z,27.25
2016-08-29T10:43:36.965Z,27.31
2016-08-29T10:44:37.530Z,27.12
2016-08-29T10:45:37.500Z,27.13
2016-08-29T10:46:37.009Z,27.18
2016-08-29T10:47:36.248Z,27.07
2016-08-29T10:48:38.097Z,27.12
2016-08-29T10:49:36.974Z,27.25
2016-08-29T10:50:37.589Z,27.22
2016-08-29T10:51:36.894Z,27.34
2016-08-29T10:52:37.716Z,27.31
2016-08-29T10:53:37.674Z,27.43
2016-08-29T10:54:37.635Z,27.41
2016-08-29T10:55:37.588Z,27.4
2016-08-29T10:56:37.006Z,27.4
2016-08-29T10:57:37.628Z,27.4
2016-08-29T10:58:38.300Z,27.36
2016-08-29T10:59:37.030Z,27.47
2016-08-29T11:00:36.946Z,27.37
2016-08-29T11:01:37.004Z,27.41
2016-08-29T11:02:37.174Z,27.41
2016-08-29T11:03:37.736Z,27.39
2016-08-29T11:04:37.074Z,27.46
2016-08-29T11:05:37.683Z,27.43
2016-08-29T11:06:37.099Z,27.46
2016-08-29T11:07:36.262Z,27.41
2016-08-29T11:08:37.025Z,27.5
2016-08-29T11:09:37.153Z,27.44
2016-08-29T11:10:36.953Z,27.47
2016-08-29T11:11:37.096Z,27.46
2016-08-29T11:12:37.758Z,27.47
2016-08-29T11:13:37.829Z,27.43
2016-08-29T11:14:37.825Z,27.51
2016-08-29T11:15:38.668Z,27.46
2016-08-29T11:16:37.826Z,27.47
2016-08-29T11:17:37.218Z,27.51
2016-08-29T11:18:37.145Z,27.51
2016-08-29T11:19:37.124Z,27.55
2016-08-29T11:20:38.938Z,27.55
2016-08-29T11:21:37.914Z,27.49
2016-08-29T11:22:37.199Z,27.47
2016-08-29T11:23:36.389Z,27.51
2016-08-29T11:24:37.885Z,27.59
2016-08-29T11:25:38.093Z,27.59
2016-08-29T11:26:37.140Z,27.62
2016-08-29T11:27:37.900Z,27.59
2016-08-29T11:28:37.280Z,27.5
2016-08-29T11:29:37.985Z,27.59
2016-08-29T11:30:36.512Z,27.6
2016-08-29T11:31:37.376Z,27.51
2016-08-29T11:32:37.266Z,27.55
2016-08-29T11:33:37.690Z,27.59
2016-08-29T11:34:37.962Z,27.54
2016-08-29T11:35:37.367Z,27.5
2016-08-29T11:36:37.911Z,27.59
2016-08-29T11:37:37.326Z,27.54
2016-08-29T11:38:37.976Z,27.54
2016-08-29T11:39:38.330Z,27.54
2016-08-29T11:40:38.098Z,27.59
2016-08-29T11:41:38.867Z,27.55
2016-08-29T11:42:37.336Z,27.49
2016-08-29T11:43:38.237Z,27.49
2016-08-29T11:44:37.995Z,27.57
2016-08-29T11:45:36.689Z,27.51
2016-08-29T11:46:39.183Z,27.5
2016-08-29T11:47:38.147Z,27.63
2016-08-29T11:48:38.213Z,27.57
2016-08-29T11:49:37.389Z,27.6
2016-08-29T11:50:37.432Z,27.51
2016-08-29T11:51:37.358Z,27.59
2016-08-29T11:52:36.576Z,27.55
2016-08-29T11:53:38.094Z,27.51
2016-08-29T11:54:37.559Z,27.54
2016-08-29T11:55:37.435Z,27.5
2016-08-29T11:56:37.482Z,27.5
2016-08-29T11:57:37.466Z,27.63
2016-08-29T11:58:37.387Z,27.6
2016-08-29T11:59:38.872Z,27.55
2016-08-29T12:00:38.174Z,27.51
2016-08-29T12:01:37.418Z,27.55
2016-08-29T12:02:37.529Z,27.57
2016-08-29T12:03:36.868Z,27.54
2016-08-29T12:04:37.451Z,27.55
2016-08-29T12:05:37.405Z,27.51
2016-08-29T12:06:38.269Z,27.54
2016-08-29T12:07:37.557Z,27.63
2016-08-29T12:08:38.408Z,27.51
2016-08-29T12:09:37.492Z,27.66
2016-08-29T12:10:37.431Z,27.54
2016-08-29T12:11:37.557Z,27.5
2016-08-29T12:12:37.557Z,27.51
2016-08-29T12:13:37.479Z,27.65
2016-08-29T12:14:37.510Z,27.54
2016-08-29T12:15:37.617Z,27.63
2016-08-29T12:16:37.541Z,27.55
2016-08-29T12:17:38.304Z,27.67
2016-08-29T12:18:37.660Z,27.62
2016-08-29T12:19:37.818Z,27.62
2016-08-29T12:20:38.295Z,27.62
2016-08-29T12:21:37.972Z,27.6
2016-08-29T12:22:38.266Z,27.6
2016-08-29T12:23:36.907Z,27.59
2016-08-29T12:24:38.365Z,27.62
2016-08-29T12:25:37.022Z,27.55
2016-08-29T12:26:37.627Z,27.67
2016-08-29T12:27:37.592Z,27.65
2016-08-29T12:28:38.443Z,27.67
2016-08-29T12:29:38.522Z,27.55
2016-08-29T12:30:36.979Z,27.66
2016-08-29T12:31:38.644Z,27.62
2016-08-29T12:32:38.469Z,27.69
2016-08-29T12:33:37.718Z,27.67
2016-08-29T12:34:39.791Z,27.63
2016-08-29T12:35:37.685Z,27.65
2016-08-29T12:36:38.455Z,27.7
2016-08-29T12:37:38.582Z,27.66
2016-08-29T12:38:37.088Z,27.54
2016-08-29T12:39:38.475Z,27.55
2016-08-29T12:40:38.654Z,27.55
2016-08-29T12:41:37.843Z,27.6
2016-08-29T12:42:37.017Z,27.59
2016-08-29T12:43:38.657Z,27.59
2016-08-29T12:44:37.790Z,27.5
2016-08-29T12:45:37.827Z,27.5
2016-08-29T12:46:37.984Z,27.63
2016-08-29T12:47:37.205Z,27.57
2016-08-29T12:48:38.536Z,27.62
2016-08-29T12:49:38.599Z,27.51
2016-08-29T12:50:38.551Z,27.55
2016-08-29T12:51:38.687Z,27.51
2016-08-29T12:52:38.637Z,27.55
2016-08-29T12:53:37.838Z,27.63
2016-08-29T12:54:38.637Z,27.63
2016-08-29T12:55:37.950Z,27.59